Time,TemperatureF,DewpointF,PressureIn,WindDirection,WindDirectionDegrees,WindSpeedMPH,WindSpeedGustMPH,Humidity,HourlyPrecipIn,Conditions,Clouds,dailyrainin,SoftwareType,DateUTC
2013-05-01 00:01:00,70.2,52.7,29.87,SW,225,2.9,7.4,54,0.00,,,0.00,WUHU216HW,2013-05-01 05:01:00,
2013-05-01 00:06:00,70.4,52.9,29.87,SSW,203,1.8,7.4,54,0.00,,,0.00,WUHU216HW,2013-05-01 05:06:00,
2013-05-01 00:11:00,70.4,52.9,29.87,SW,225,3.4,6.9,54,0.00,,,0.00,WUHU216HW,2013-05-01 05:11:00,
2013-05-01 00:16:00,70.6,53.1,29.87,South,180,4.7,6.0,54,0.00,,,0.00,WUHU216HW,2013-05-01 05:16:00,
2013-05-01 00:21:00,70.4,52.9,29.88,South,180,2.2,6.9,54,0.00,,,0.00,WUHU216HW,2013-05-01 05:21:00,
2013-05-01 00:26:00,70.6,53.1,29.88,SW,225,4.9,6.9,54,0.00,,,0.00,WUHU216HW,2013-05-01 05:26:00,
2013-05-01 00:31:00,70.4,53.4,29.88,SSE,158,3.1,8.7,55,0.00,,,0.00,WUHU216HW,2013-05-01 05:31:00,
2013-05-01 00:36:00,70.4,53.4,29.88,South,180,2.0,8.7,55,0.00,,,0.00,WUHU216HW,2013-05-01 05:36:00,
2013-05-01 00:41:00,70.4,53.4,29.89,SSE,158,2.5,8.9,55,0.00,,,0.00,WUHU216HW,2013-05-01 05:41:00,
2013-05-01 00:46:00,70.4,53.4,29.89,West,270,5.1,8.9,55,0.00,,,0.00,WUHU216HW,2013-05-01 05:46:00,
2013-05-01 00:51:00,70.6,53.6,29.89,NW,315,3.6,7.4,55,0.00,,,0.00,WUHU216HW,2013-05-01 05:51:00,
2013-05-01 00:56:00,70.6,53.6,29.89,WSW,248,4.9,7.4,55,0.00,,,0.00,WUHU216HW,2013-05-01 05:56:00,
2013-05-01 01:01:00,70.6,53.6,29.89,SSE,158,5.1,8.5,55,0.00,,,0.00,WUHU216HW,2013-05-01 06:01:00,
2013-05-01 01:06:00,70.4,53.4,29.89,WSW,248,6.3,8.5,55,0.00,,,0.00,WUHU216HW,2013-05-01 06:06:00,
2013-05-01 01:11:00,70.4,53.4,29.89,SW,225,5.4,6.5,55,0.00,,,0.00,WUHU216HW,2013-05-01 06:11:00,
2013-05-01 01:16:00,70.4,53.4,29.89,SW,225,2.0,7.8,55,0.00,,,0.00,WUHU216HW,2013-05-01 06:16:00,
2013-05-01 01:21:00,70.4,53.9,29.89,SW,225,5.6,7.8,56,0.00,,,0.00,WUHU216HW,2013-05-01 06:21:00,
2013-05-01 01:26:00,70.2,53.7,29.89,South,180,6.3,7.6,56,0.00,,,0.00,WUHU216HW,2013-05-01 06:26:00,
2013-05-01 01:31:00,70.0,54.1,29.89,South,180,5.4,8.5,57,0.00,,,0.00,WUHU216HW,2013-05-01 06:31:00,
2013-05-01 01:36:00,69.8,53.9,29.89,South,180,7.4,8.5,57,0.00,,,0.00,WUHU216HW,2013-05-01 06:36:00,
2013-05-01 01:41:00,69.8,53.9,29.89,SSW,203,4.0,8.1,57,0.00,,,0.00,WUHU216HW,2013-05-01 06:41:00,
2013-05-01 01:46:00,69.8,53.9,29.89,SW,225,4.7,8.1,57,0.00,,,0.00,WUHU216HW,2013-05-01 06:46:00,
2013-05-01 01:51:00,69.8,53.9,29.89,West,270,2.0,6.9,57,0.00,,,0.00,WUHU216HW,2013-05-01 06:51:00,
2013-05-01 01:56:00,69.7,53.7,29.90,WNW,293,4.3,6.9,57,0.00,,,0.00,WUHU216HW,2013-05-01 06:56:00,
2013-05-01 02:00:00,69.5,53.6,29.91,North,0,6.3,6.3,57,0.00,,,0.00,WUHU216HW,2013-05-01 07:00:00,
2013-05-01 02:09:00,68.4,53.6,29.91,NNW,338,0.7,6.3,59,0.00,,,0.00,WUHU216HW,2013-05-01 07:09:00,
2013-05-01 02:13:00,68.2,53.4,29.91,NNE,23,1.8,3.4,59,0.00,,,0.00,WUHU216HW,2013-05-01 07:13:00,
2013-05-01 02:18:00,68.0,53.6,29.91,North,0,2.7,3.1,60,0.00,,,0.00,WUHU216HW,2013-05-01 07:18:00,
2013-05-01 02:23:00,67.5,51.7,29.91,North,0,1.1,4.7,57,0.00,,,0.00,WUHU216HW,2013-05-01 07:23:00,
2013-05-01 02:28:00,66.4,49.2,29.91,NNE,23,6.3,7.2,54,0.00,,,0.00,WUHU216HW,2013-05-01 07:28:00,
2013-05-01 02:33:00,64.6,47.5,29.92,North,0,3.4,7.2,54,0.00,,,0.00,WUHU216HW,2013-05-01 07:33:00,
2013-05-01 02:38:00,63.4,46.8,29.92,NNE,23,2.2,6.3,55,0.00,,,0.00,WUHU216HW,2013-05-01 07:38:00,
2013-05-01 02:43:00,62.6,46.6,29.92,North,0,1.1,5.1,56,0.00,,,0.00,WUHU216HW,2013-05-01 07:43:00,
2013-05-01 02:48:00,62.3,46.4,29.92,NNW,338,1.3,3.8,56,0.00,,,0.00,WUHU216HW,2013-05-01 07:48:00,
2013-05-01 02:53:00,61.7,45.8,29.92,ENE,68,0.0,2.7,56,0.00,,,0.00,WUHU216HW,2013-05-01 07:53:00,
2013-05-01 02:58:00,61.2,45.4,29.91,SSE,158,0.4,1.3,56,0.00,,,0.00,WUHU216HW,2013-05-01 07:58:00,
2013-05-01 03:03:00,60.8,46.0,29.92,North,0,2.5,2.5,58,0.00,,,0.00,WUHU216HW,2013-05-01 08:03:00,
2013-05-01 03:08:00,60.3,46.0,29.92,NNW,338,0.0,4.7,59,0.00,,,0.00,WUHU216HW,2013-05-01 08:08:00,
2013-05-01 03:13:00,60.1,45.8,29.92,NE,45,1.1,4.7,59,0.00,,,0.00,WUHU216HW,2013-05-01 08:13:00,
2013-05-01 03:18:00,60.1,45.8,29.92,SW,225,0.0,1.6,59,0.00,,,0.00,WUHU216HW,2013-05-01 08:18:00,
2013-05-01 03:23:00,59.8,45.5,29.92,NNE,23,0.4,1.3,59,0.00,,,0.00,WUHU216HW,2013-05-01 08:23:00,
2013-05-01 03:28:00,59.4,46.0,29.93,North,0,1.6,2.0,61,0.00,,,0.00,WUHU216HW,2013-05-01 08:28:00,
2013-05-01 03:33:00,59.0,46.0,29.93,NNW,338,0.2,2.7,62,0.00,,,0.00,WUHU216HW,2013-05-01 08:33:00,
2013-05-01 03:38:00,59.0,45.6,29.93,ENE,68,0.0,2.7,61,0.00,,,0.00,WUHU216HW,2013-05-01 08:38:00,
2013-05-01 03:43:00,58.9,45.8,29.93,NNW,338,2.9,3.4,62,0.00,,,0.00,WUHU216HW,2013-05-01 08:43:00,
2013-05-01 03:48:00,58.5,45.1,29.93,NNE,23,0.0,3.4,61,0.00,,,0.00,WUHU216HW,2013-05-01 08:48:00,
2013-05-01 03:53:00,58.1,45.6,29.93,WSW,248,0.0,2.9,63,0.00,,,0.00,WUHU216HW,2013-05-01 08:53:00,
2013-05-01 03:58:00,58.0,45.0,29.94,SSW,203,0.9,1.6,62,0.00,,,0.00,WUHU216HW,2013-05-01 08:58:00,
2013-05-01 04:03:00,57.8,44.8,29.94,NW,315,0.2,1.6,62,0.00,,,0.00,WUHU216HW,2013-05-01 09:03:00,
2013-05-01 04:08:00,57.6,44.6,29.94,South,180,0.7,2.5,62,0.00,,,0.00,WUHU216HW,2013-05-01 09:08:00,
2013-05-01 04:13:00,57.4,44.9,29.94,North,0,0.0,2.5,63,0.00,,,0.00,WUHU216HW,2013-05-01 09:13:00,
2013-05-01 04:18:00,57.2,44.4,29.94,North,0,0.0,1.8,62,0.00,,,0.00,WUHU216HW,2013-05-01 09:18:00,
2013-05-01 04:23:00,56.9,44.8,29.94,NNW,338,0.0,1.1,64,0.00,,,0.00,WUHU216HW,2013-05-01 09:23:00,
2013-05-01 04:28:00,56.5,44.0,29.94,North,0,0.0,1.1,63,0.00,,,0.00,WUHU216HW,2013-05-01 09:28:00,
2013-05-01 04:33:00,56.2,44.1,29.94,North,0,0.0,0.0,64,0.00,,,0.00,WUHU216HW,2013-05-01 09:33:00,
2013-05-01 04:38:00,56.0,44.7,29.95,North,0,1.3,1.8,66,0.00,,,0.00,WUHU216HW,2013-05-01 09:38:00,
2013-05-01 04:43:00,55.8,44.6,29.95,North,0,0.0,1.8,66,0.00,,,0.00,WUHU216HW,2013-05-01 09:43:00,
2013-05-01 04:48:00,55.4,43.8,29.95,North,0,0.0,1.3,65,0.00,,,0.00,WUHU216HW,2013-05-01 09:48:00,
2013-05-01 04:53:00,55.1,44.7,29.95,North,0,1.6,2.2,68,0.00,,,0.00,WUHU216HW,2013-05-01 09:53:00,
2013-05-01 04:58:00,54.7,44.7,29.96,North,0,1.1,2.2,69,0.00,,,0.00,WUHU216HW,2013-05-01 09:58:00,
2013-05-01 05:03:00,54.5,44.6,29.96,North,0,0.0,1.8,69,0.00,,,0.00,WUHU216HW,2013-05-01 10:03:00,
2013-05-01 05:08:00,54.4,44.5,29.96,North,0,0.0,1.3,69,0.00,,,0.00,WUHU216HW,2013-05-01 10:08:00,
2013-05-01 05:13:00,54.4,44.5,29.95,North,0,0.0,0.0,69,0.00,,,0.00,WUHU216HW,2013-05-01 10:13:00,
2013-05-01 05:18:00,54.0,43.7,29.96,NNE,23,0.0,0.0,68,0.00,,,0.00,WUHU216HW,2013-05-01 10:18:00,
2013-05-01 05:23:00,53.8,43.9,29.96,NE,45,0.0,0.4,69,0.00,,,0.00,WUHU216HW,2013-05-01 10:23:00,
2013-05-01 05:28:00,53.8,43.9,29.96,NE,45,0.0,0.4,69,0.00,,,0.00,WUHU216HW,2013-05-01 10:28:00,
2013-05-01 05:33:00,53.6,43.8,29.96,NE,45,0.0,0.0,69,0.00,,,0.00,WUHU216HW,2013-05-01 10:33:00,
2013-05-01 05:38:00,53.6,44.1,29.96,North,0,0.0,0.4,70,0.00,,,0.00,WUHU216HW,2013-05-01 10:38:00,
2013-05-01 05:43:00,53.6,44.5,29.97,North,0,0.4,0.7,71,0.00,,,0.00,WUHU216HW,2013-05-01 10:43:00,
2013-05-01 05:48:00,53.6,44.5,29.97,North,0,1.1,1.8,71,0.00,,,0.00,WUHU216HW,2013-05-01 10:48:00,
2013-05-01 05:53:00,54.0,44.8,29.98,NNW,338,0.7,1.8,71,0.00,,,0.00,WUHU216HW,2013-05-01 10:53:00,
2013-05-01 05:58:00,54.4,44.8,29.98,NNW,338,0.0,1.3,70,0.00,,,0.00,WUHU216HW,2013-05-01 10:58:00,
2013-05-01 06:03:00,54.2,44.6,29.98,NNW,338,0.0,1.1,70,0.00,,,0.00,WUHU216HW,2013-05-01 11:03:00,
2013-05-01 06:08:00,54.0,44.5,29.99,NNW,338,0.9,1.6,70,0.00,,,0.00,WUHU216HW,2013-05-01 11:08:00,
2013-05-01 06:13:00,54.0,45.2,29.99,North,0,2.0,3.4,72,0.00,,,0.00,WUHU216HW,2013-05-01 11:13:00,
2013-05-01 06:18:00,54.4,45.2,29.99,NNW,338,0.0,4.0,71,0.00,,,0.00,WUHU216HW,2013-05-01 11:18:00,
2013-05-01 06:23:00,54.7,45.2,29.99,NNW,338,2.0,4.0,70,0.00,,,0.00,WUHU216HW,2013-05-01 11:23:00,
2013-05-01 06:28:00,55.1,45.1,29.99,NW,315,3.8,3.8,69,0.00,,,0.00,WUHU216HW,2013-05-01 11:28:00,
2013-05-01 06:33:00,55.3,45.3,30.00,North,0,2.5,4.9,69,0.00,,,0.00,WUHU216HW,2013-05-01 11:33:00,
2013-05-01 06:38:00,55.4,45.1,30.00,North,0,3.8,4.9,68,0.00,,,0.00,WUHU216HW,2013-05-01 11:38:00,
2013-05-01 06:43:00,55.6,45.3,30.00,NNW,338,2.7,4.5,68,0.00,,,0.00,WUHU216HW,2013-05-01 11:43:00,
2013-05-01 06:48:00,55.8,45.0,30.00,NW,315,4.7,6.9,67,0.00,,,0.00,WUHU216HW,2013-05-01 11:48:00,
2013-05-01 06:53:00,56.3,45.5,30.00,North,0,4.0,6.9,67,0.00,,,0.00,WUHU216HW,2013-05-01 11:53:00,
2013-05-01 06:58:00,56.5,45.3,30.01,NNE,23,4.5,6.7,66,0.00,,,0.00,WUHU216HW,2013-05-01 11:58:00,
2013-05-01 07:03:00,56.7,45.5,30.01,NNE,23,3.4,7.6,66,0.00,,,0.00,WUHU216HW,2013-05-01 12:03:00,
2013-05-01 07:08:00,57.1,45.8,30.01,North,0,2.0,7.6,66,0.00,,,0.00,WUHU216HW,2013-05-01 12:08:00,
2013-05-01 07:13:00,57.4,45.7,30.01,North,0,2.9,6.9,65,0.00,,,0.00,WUHU216HW,2013-05-01 12:13:00,
2013-05-01 07:18:00,58.0,45.8,30.02,NNW,338,4.0,5.4,64,0.00,,,0.00,WUHU216HW,2013-05-01 12:18:00,
2013-05-01 07:23:00,58.1,46.0,30.02,North,0,2.0,5.4,64,0.00,,,0.00,WUHU216HW,2013-05-01 12:23:00,
2013-05-01 07:28:00,58.5,46.4,30.02,North,0,4.9,5.6,64,0.00,,,0.00,WUHU216HW,2013-05-01 12:28:00,
2013-05-01 07:33:00,58.7,46.5,30.02,North,0,4.0,6.5,64,0.00,,,0.00,WUHU216HW,2013-05-01 12:33:00,
2013-05-01 07:38:00,58.9,46.7,30.03,NNW,338,5.4,6.5,64,0.00,,,0.00,WUHU216HW,2013-05-01 12:38:00,
2013-05-01 07:43:00,59.0,46.5,30.03,NNW,338,4.3,6.9,63,0.00,,,0.00,WUHU216HW,2013-05-01 12:43:00,
2013-05-01 07:48:00,59.2,46.2,30.03,North,0,2.5,6.9,62,0.00,,,0.00,WUHU216HW,2013-05-01 12:48:00,
2013-05-01 07:53:00,59.4,46.4,30.03,North,0,3.8,6.9,62,0.00,,,0.00,WUHU216HW,2013-05-01 12:53:00,
2013-05-01 07:58:00,59.6,47.0,30.03,NNW,338,6.7,6.9,63,0.00,,,0.00,WUHU216HW,2013-05-01 12:58:00,
2013-05-01 08:03:00,59.8,47.2,30.03,North,0,4.0,7.4,63,0.00,,,0.00,WUHU216HW,2013-05-01 13:03:00,
2013-05-01 08:08:00,60.1,47.1,30.04,North,0,4.0,7.4,62,0.00,,,0.00,WUHU216HW,2013-05-01 13:08:00,
2013-05-01 08:13:00,60.5,47.4,30.03,NNE,23,3.8,6.9,62,0.00,,,0.00,WUHU216HW,2013-05-01 13:13:00,
2013-05-01 08:18:00,60.7,48.1,30.03,North,0,6.3,7.4,63,0.00,,,0.00,WUHU216HW,2013-05-01 13:18:00,
2013-05-01 08:23:00,61.0,48.0,30.04,NNW,338,4.7,7.6,62,0.00,,,0.00,WUHU216HW,2013-05-01 13:23:00,
2013-05-01 08:28:00,61.6,48.1,30.04,NNW,338,4.7,7.6,61,0.00,,,0.00,WUHU216HW,2013-05-01 13:28:00,
2013-05-01 08:33:00,61.6,48.1,30.04,NNW,338,4.7,6.3,61,0.00,,,0.00,WUHU216HW,2013-05-01 13:33:00,
2013-05-01 08:38:00,61.9,48.3,30.04,North,0,4.5,6.9,61,0.00,,,0.00,WUHU216HW,2013-05-01 13:38:00,
2013-05-01 08:43:00,62.3,48.7,30.05,North,0,5.8,6.9,61,0.00,,,0.00,WUHU216HW,2013-05-01 13:43:00,
2013-05-01 08:48:00,62.3,48.7,30.05,North,0,3.8,7.6,61,0.00,,,0.00,WUHU216HW,2013-05-01 13:48:00,
2013-05-01 08:53:00,62.5,48.9,30.05,NNW,338,1.8,7.6,61,0.00,,,0.00,WUHU216HW,2013-05-01 13:53:00,
2013-05-01 08:58:00,62.8,48.8,30.05,North,0,4.9,7.6,60,0.00,,,0.00,WUHU216HW,2013-05-01 13:58:00,
2013-05-01 09:03:00,63.0,49.3,30.05,NNE,23,4.5,7.6,61,0.00,,,0.00,WUHU216HW,2013-05-01 14:03:00,
2013-05-01 09:08:00,63.0,49.0,30.05,North,0,3.4,7.6,60,0.00,,,0.00,WUHU216HW,2013-05-01 14:08:00,
2013-05-01 09:13:00,63.5,49.4,30.04,SE,135,0.0,6.3,60,0.00,,,0.00,WUHU216HW,2013-05-01 14:13:00,
2013-05-01 09:18:00,63.9,49.2,30.05,NNW,338,3.4,4.3,59,0.00,,,0.00,WUHU216HW,2013-05-01 14:18:00,
2013-05-01 09:23:00,64.4,50.2,30.05,North,0,2.0,4.3,60,0.00,,,0.00,WUHU216HW,2013-05-01 14:23:00,
2013-05-01 09:28:00,65.2,50.5,30.05,North,0,1.8,4.0,59,0.00,,,0.00,WUHU216HW,2013-05-01 14:28:00,
2013-05-01 09:33:00,65.5,49.9,30.05,North,0,1.8,3.1,57,0.00,,,0.00,WUHU216HW,2013-05-01 14:33:00,
2013-05-01 09:38:00,65.7,50.1,30.05,NE,45,2.5,3.4,57,0.00,,,0.00,WUHU216HW,2013-05-01 14:38:00,
2013-05-01 09:43:00,66.4,51.2,30.06,North,0,1.1,3.4,58,0.00,,,0.00,WUHU216HW,2013-05-01 14:43:00,
2013-05-01 09:48:00,67.0,50.2,30.06,NNE,23,1.3,3.8,55,0.00,,,0.00,WUHU216HW,2013-05-01 14:48:00,
2013-05-01 09:53:00,66.8,50.6,30.06,NE,45,2.0,3.8,56,0.00,,,0.00,WUHU216HW,2013-05-01 14:53:00,
2013-05-01 09:58:00,67.3,51.6,30.06,NE,45,1.1,3.8,57,0.00,,,0.00,WUHU216HW,2013-05-01 14:58:00,
2013-05-01 10:03:00,67.1,50.4,30.06,NW,315,5.4,5.4,55,0.00,,,0.00,WUHU216HW,2013-05-01 15:03:00,
2013-05-01 10:08:00,67.0,50.8,30.06,North,0,2.9,6.5,56,0.00,,,0.00,WUHU216HW,2013-05-01 15:08:00,
2013-05-01 10:13:00,67.3,51.0,30.06,NNW,338,1.6,6.5,56,0.00,,,0.00,WUHU216HW,2013-05-01 15:13:00,
2013-05-01 10:18:00,68.0,50.8,30.06,NNW,338,2.5,4.0,54,0.00,,,0.00,WUHU216HW,2013-05-01 15:18:00,
2013-05-01 10:23:00,68.4,51.6,30.07,North,0,1.1,4.0,55,0.00,,,0.00,WUHU216HW,2013-05-01 15:23:00,
2013-05-01 10:28:00,68.8,51.0,30.07,ESE,113,3.8,4.9,53,0.00,,,0.00,WUHU216HW,2013-05-01 15:28:00,
2013-05-01 10:33:00,69.7,51.8,30.07,WNW,293,0.7,4.9,53,0.00,,,0.00,WUHU216HW,2013-05-01 15:33:00,
2013-05-01 10:38:00,70.6,52.0,30.06,North,0,4.3,4.3,52,0.00,,,0.00,WUHU216HW,2013-05-01 15:38:00,
2013-05-01 10:43:00,70.2,52.7,30.07,NE,45,0.7,4.5,54,0.00,,,0.00,WUHU216HW,2013-05-01 15:43:00,
2013-05-01 10:48:00,71.1,53.6,30.07,SW,225,1.8,4.5,54,0.00,,,0.00,WUHU216HW,2013-05-01 15:48:00,
2013-05-01 10:53:00,71.6,53.0,30.07,WSW,248,0.9,3.1,52,0.00,,,0.00,WUHU216HW,2013-05-01 15:53:00,
2013-05-01 10:58:00,72.5,53.8,30.06,South,180,0.2,3.1,52,0.00,,,0.00,WUHU216HW,2013-05-01 15:58:00,
2013-05-01 11:03:00,73.6,54.4,30.06,NNE,23,1.6,3.1,51,0.00,,,0.00,WUHU216HW,2013-05-01 16:03:00,
2013-05-01 11:08:00,73.4,53.6,30.06,ESE,113,0.9,2.5,50,0.00,,,0.00,WUHU216HW,2013-05-01 16:08:00,
2013-05-01 11:13:00,73.8,54.6,30.06,South,180,1.6,2.7,51,0.00,,,0.00,WUHU216HW,2013-05-01 16:13:00,
2013-05-01 11:18:00,74.3,53.9,30.07,SSE,158,1.3,2.7,49,0.00,,,0.00,WUHU216HW,2013-05-01 16:18:00,
2013-05-01 11:23:00,74.5,54.1,30.06,SSW,203,0.7,2.9,49,0.00,,,0.00,WUHU216HW,2013-05-01 16:23:00,
2013-05-01 11:28:00,74.7,54.9,30.07,ESE,113,2.7,3.4,50,0.00,,,0.00,WUHU216HW,2013-05-01 16:28:00,
2013-05-01 11:33:00,75.2,54.8,30.06,SSE,158,2.5,4.0,49,0.00,,,0.00,WUHU216HW,2013-05-01 16:33:00,
2013-05-01 11:38:00,76.0,55.4,30.06,SSE,158,1.1,4.0,49,0.00,,,0.00,WUHU216HW,2013-05-01 16:38:00,
2013-05-01 11:43:00,76.3,54.5,30.06,NNE,23,0.2,3.4,47,0.00,,,0.00,WUHU216HW,2013-05-01 16:43:00,
2013-05-01 11:48:00,76.3,55.2,30.06,SSE,158,2.2,3.1,48,0.00,,,0.00,WUHU216HW,2013-05-01 16:48:00,
2013-05-01 11:53:00,76.7,55.5,30.06,SE,135,1.6,4.7,48,0.00,,,0.00,WUHU216HW,2013-05-01 16:53:00,
2013-05-01 11:58:00,76.9,55.7,30.06,SSE,158,1.8,4.7,48,0.00,,,0.00,WUHU216HW,2013-05-01 16:58:00,
2013-05-01 12:03:00,77.9,56.6,30.06,NNW,338,0.4,4.7,48,0.00,,,0.00,WUHU216HW,2013-05-01 17:03:00,
2013-05-01 12:08:00,78.3,56.3,30.06,South,180,0.4,4.7,47,0.00,,,0.00,WUHU216HW,2013-05-01 17:08:00,
2013-05-01 12:13:00,79.0,57.0,30.06,South,180,4.0,4.7,47,0.00,,,0.00,WUHU216HW,2013-05-01 17:13:00,
2013-05-01 12:18:00,80.1,57.3,30.06,SE,135,2.7,4.0,46,0.00,,,0.00,WUHU216HW,2013-05-01 17:18:00,
2013-05-01 12:23:00,80.6,56.0,30.06,SSW,203,2.5,4.5,43,0.00,,,0.00,WUHU216HW,2013-05-01 17:23:00,
2013-05-01 12:28:00,79.9,56.0,30.06,SSE,158,3.8,4.5,44,0.00,,,0.00,WUHU216HW,2013-05-01 17:28:00,
2013-05-01 12:33:00,80.6,57.2,30.06,SSW,203,2.0,6.9,45,0.00,,,0.00,WUHU216HW,2013-05-01 17:33:00,
2013-05-01 12:38:00,79.9,56.0,30.06,NNE,23,1.8,6.9,44,0.00,,,0.00,WUHU216HW,2013-05-01 17:38:00,
2013-05-01 12:43:00,80.3,56.9,30.06,South,180,0.4,3.6,45,0.00,,,0.00,WUHU216HW,2013-05-01 17:43:00,
2013-05-01 12:48:00,80.3,56.4,30.06,SE,135,1.8,4.7,44,0.00,,,0.00,WUHU216HW,2013-05-01 17:48:00,
2013-05-01 12:53:00,81.0,57.0,30.06,NNE,23,1.8,4.7,44,0.00,,,0.00,WUHU216HW,2013-05-01 17:53:00,
2013-05-01 12:58:00,81.9,56.5,30.05,SSW,203,2.0,3.4,42,0.00,,,0.00,WUHU216HW,2013-05-01 17:58:00,
2013-05-01 13:03:00,82.3,57.5,30.06,North,0,1.8,3.4,43,0.00,,,0.00,WUHU216HW,2013-05-01 18:03:00,
2013-05-01 13:08:00,82.6,56.6,30.05,North,0,2.5,3.4,41,0.00,,,0.00,WUHU216HW,2013-05-01 18:08:00,
2013-05-01 13:13:00,81.9,56.5,30.06,NNW,338,1.1,3.4,42,0.00,,,0.00,WUHU216HW,2013-05-01 18:13:00,
2013-05-01 13:18:00,82.6,56.0,30.06,SSE,158,1.1,4.5,40,0.00,,,0.00,WUHU216HW,2013-05-01 18:18:00,
2013-05-01 13:23:00,84.6,57.0,30.06,East,90,0.4,4.5,39,0.00,,,0.00,WUHU216HW,2013-05-01 18:23:00,
2013-05-01 13:28:00,85.3,58.4,30.06,SE,135,0.4,3.6,40,0.00,,,0.00,WUHU216HW,2013-05-01 18:28:00,
2013-05-01 13:33:00,85.9,58.1,30.06,South,180,4.7,5.4,39,0.00,,,0.00,WUHU216HW,2013-05-01 18:33:00,
2013-05-01 13:38:00,85.7,56.3,30.06,South,180,6.3,6.3,37,0.00,,,0.00,WUHU216HW,2013-05-01 18:38:00,
2013-05-01 13:43:00,86.2,56.8,30.06,NNE,23,1.3,6.3,37,0.00,,,0.00,WUHU216HW,2013-05-01 18:43:00,
2013-05-01 13:48:00,84.6,56.2,30.06,NNW,338,1.1,6.3,38,0.00,,,0.00,WUHU216HW,2013-05-01 18:48:00,
2013-05-01 13:53:00,85.3,54.5,30.06,WNW,293,2.5,4.7,35,0.00,,,0.00,WUHU216HW,2013-05-01 18:53:00,
2013-05-01 13:58:00,84.1,55.7,30.06,NNE,23,2.5,4.5,38,0.00,,,0.00,WUHU216HW,2013-05-01 18:58:00,
2013-05-01 14:03:00,83.7,56.2,30.06,NNW,338,0.9,4.9,39,0.00,,,0.00,WUHU216HW,2013-05-01 19:03:00,
2013-05-01 14:08:00,84.6,56.2,30.06,ENE,68,1.1,4.9,38,0.00,,,0.00,WUHU216HW,2013-05-01 19:08:00,
2013-05-01 14:13:00,84.8,55.5,30.06,West,270,0.4,4.0,37,0.00,,,0.00,WUHU216HW,2013-05-01 19:13:00,
2013-05-01 14:18:00,83.9,55.5,30.06,SSE,158,1.8,6.9,38,0.00,,,0.00,WUHU216HW,2013-05-01 19:18:00,
2013-05-01 14:23:00,85.0,55.7,30.05,NE,45,0.9,6.9,37,0.00,,,0.00,WUHU216HW,2013-05-01 19:23:00,
2013-05-01 14:28:00,84.8,57.2,30.05,South,180,1.1,6.5,39,0.00,,,0.00,WUHU216HW,2013-05-01 19:28:00,
2013-05-01 14:33:00,85.3,56.8,30.05,NNE,23,4.3,6.5,38,0.00,,,0.00,WUHU216HW,2013-05-01 19:33:00,
2013-05-01 14:38:00,83.2,54.9,30.05,NNE,23,1.1,6.0,38,0.00,,,0.00,WUHU216HW,2013-05-01 19:38:00,
2013-05-01 14:43:00,82.8,55.4,30.05,North,0,5.4,6.3,39,0.00,,,0.00,WUHU216HW,2013-05-01 19:43:00,
2013-05-01 14:48:00,82.8,56.2,30.05,North,0,3.1,7.4,40,0.00,,,0.00,WUHU216HW,2013-05-01 19:48:00,
2013-05-01 14:53:00,83.3,56.6,30.05,North,0,1.6,7.6,40,0.00,,,0.00,WUHU216HW,2013-05-01 19:53:00,
2013-05-01 14:58:00,84.1,57.2,30.05,SSW,203,0.9,7.6,40,0.00,,,0.00,WUHU216HW,2013-05-01 19:58:00,
2013-05-01 15:03:00,84.8,56.4,30.05,NNW,338,4.0,4.7,38,0.00,,,0.00,WUHU216HW,2013-05-01 20:03:00,
2013-05-01 15:08:00,84.8,57.2,30.05,South,180,4.9,5.1,39,0.00,,,0.00,WUHU216HW,2013-05-01 20:08:00,
2013-05-01 15:13:00,86.8,58.1,30.05,WNW,293,0.7,5.1,38,0.00,,,0.00,WUHU216HW,2013-05-01 20:13:00,
2013-05-01 15:18:00,87.1,57.6,30.05,NW,315,2.5,4.9,37,0.00,,,0.00,WUHU216HW,2013-05-01 20:18:00,
2013-05-01 15:23:00,84.8,55.5,30.05,NNW,338,1.8,5.4,37,0.00,,,0.00,WUHU216HW,2013-05-01 20:23:00,
2013-05-01 15:28:00,83.9,55.5,30.05,SW,225,3.6,5.4,38,0.00,,,0.00,WUHU216HW,2013-05-01 20:28:00,
2013-05-01 15:33:00,83.9,55.5,30.05,North,0,2.9,5.4,38,0.00,,,0.00,WUHU216HW,2013-05-01 20:33:00,
2013-05-01 15:38:00,84.2,56.6,30.05,NNW,338,2.9,5.4,39,0.00,,,0.00,WUHU216HW,2013-05-01 20:38:00,
2013-05-01 15:43:00,85.9,58.1,30.05,South,180,0.7,3.8,39,0.00,,,0.00,WUHU216HW,2013-05-01 20:43:00,
2013-05-01 15:48:00,88.4,59.5,30.04,WSW,248,0.0,2.9,38,0.00,,,0.00,WUHU216HW,2013-05-01 20:48:00,
2013-05-01 15:53:00,88.7,57.3,30.04,NW,315,1.8,5.4,35,0.00,,,0.00,WUHU216HW,2013-05-01 20:53:00,
2013-05-01 15:58:00,87.3,58.6,30.04,NW,315,2.5,5.4,38,0.00,,,0.00,WUHU216HW,2013-05-01 20:58:00,
2013-05-01 16:03:00,86.8,57.3,30.04,North,0,2.7,4.5,37,0.00,,,0.00,WUHU216HW,2013-05-01 21:03:00,
2013-05-01 16:08:00,86.0,56.7,30.04,North,0,4.0,5.6,37,0.00,,,0.00,WUHU216HW,2013-05-01 21:08:00,
2013-05-01 16:13:00,86.0,56.7,30.04,North,0,3.6,5.8,37,0.00,,,0.00,WUHU216HW,2013-05-01 21:13:00,
2013-05-01 16:18:00,88.7,58.1,30.05,South,180,1.8,5.8,36,0.00,,,0.00,WUHU216HW,2013-05-01 21:18:00,
2013-05-01 16:23:00,89.8,59.1,30.04,SSW,203,1.1,4.0,36,0.00,,,0.00,WUHU216HW,2013-05-01 21:23:00,
2013-05-01 16:28:00,89.1,56.1,30.04,NNE,23,0.2,4.0,33,0.00,,,0.00,WUHU216HW,2013-05-01 21:28:00,
2013-05-01 16:33:00,88.2,57.7,30.04,South,180,0.7,2.7,36,0.00,,,0.00,WUHU216HW,2013-05-01 21:33:00,
2013-05-01 16:38:00,88.6,57.3,30.04,North,0,1.8,3.6,35,0.00,,,0.00,WUHU216HW,2013-05-01 21:38:00,
2013-05-01 16:43:00,87.3,57.0,30.04,North,0,1.3,3.6,36,0.00,,,0.00,WUHU216HW,2013-05-01 21:43:00,
2013-05-01 16:48:00,85.1,55.9,30.05,NE,45,2.0,4.3,37,0.00,,,0.00,WUHU216HW,2013-05-01 21:48:00,
2013-05-01 16:53:00,83.3,55.8,30.04,NE,45,2.7,4.7,39,0.00,,,0.00,WUHU216HW,2013-05-01 21:53:00,
2013-05-01 16:58:00,82.6,55.2,30.05,ENE,68,0.9,4.7,39,0.00,,,0.00,WUHU216HW,2013-05-01 21:58:00,
2013-05-01 17:03:00,84.4,57.6,30.05,ENE,68,2.2,2.7,40,0.00,,,0.00,WUHU216HW,2013-05-01 22:03:00,
2013-05-01 17:08:00,85.5,57.0,30.05,North,0,0.9,4.0,38,0.00,,,0.00,WUHU216HW,2013-05-01 22:08:00,
2013-05-01 17:13:00,85.3,56.8,30.04,North,0,1.6,4.0,38,0.00,,,0.00,WUHU216HW,2013-05-01 22:13:00,
2013-05-01 17:18:00,85.1,56.6,30.04,West,270,1.6,3.6,38,0.00,,,0.00,WUHU216HW,2013-05-01 22:18:00,
2013-05-01 17:23:00,84.2,56.6,30.04,SSW,203,0.4,2.9,39,0.00,,,0.00,WUHU216HW,2013-05-01 22:23:00,
2013-05-01 17:28:00,83.2,56.4,30.04,NE,45,1.3,2.0,40,0.00,,,0.00,WUHU216HW,2013-05-01 22:28:00,
2013-05-01 17:33:00,82.1,56.1,30.04,NNE,23,1.8,2.0,41,0.00,,,0.00,WUHU216HW,2013-05-01 22:33:00,
2013-05-01 17:38:00,81.7,55.8,30.04,North,0,1.1,1.8,41,0.00,,,0.00,WUHU216HW,2013-05-01 22:38:00,
2013-05-01 17:43:00,82.4,56.4,30.05,NE,45,0.7,1.8,41,0.00,,,0.00,WUHU216HW,2013-05-01 22:43:00,
2013-05-01 17:48:00,82.4,56.4,30.05,North,0,0.4,1.1,41,0.00,,,0.00,WUHU216HW,2013-05-01 22:48:00,
2013-05-01 17:53:00,81.2,55.3,30.05,ENE,68,2.0,2.7,41,0.00,,,0.00,WUHU216HW,2013-05-01 22:53:00,
2013-05-01 17:58:00,80.3,55.7,30.05,NE,45,1.8,2.7,43,0.00,,,0.00,WUHU216HW,2013-05-01 22:58:00,
2013-05-01 18:03:00,79.6,55.1,30.05,NE,45,1.3,2.0,43,0.00,,,0.00,WUHU216HW,2013-05-01 23:03:00,
2013-05-01 18:08:00,79.2,55.4,30.05,NE,45,2.5,2.5,44,0.00,,,0.00,WUHU216HW,2013-05-01 23:08:00,
2013-05-01 18:13:00,78.8,55.6,30.05,ESE,113,1.3,2.5,45,0.00,,,0.00,WUHU216HW,2013-05-01 23:13:00,
2013-05-01 18:18:00,78.5,55.3,30.05,North,0,0.0,2.5,45,0.00,,,0.00,WUHU216HW,2013-05-01 23:18:00,
2013-05-01 18:23:00,78.1,55.6,30.05,North,0,1.3,2.0,46,0.00,,,0.00,WUHU216HW,2013-05-01 23:23:00,
2013-05-01 18:28:00,77.8,55.9,30.05,NNE,23,0.4,2.2,47,0.00,,,0.00,WUHU216HW,2013-05-01 23:28:00,
2013-05-01 18:33:00,77.8,55.9,30.05,ESE,113,0.2,2.2,47,0.00,,,0.00,WUHU216HW,2013-05-01 23:33:00,
2013-05-01 18:38:00,77.6,55.7,30.05,North,0,0.9,2.2,47,0.00,,,0.00,WUHU216HW,2013-05-01 23:38:00,
2013-05-01 18:43:00,77.6,55.7,30.05,NNE,23,1.1,1.8,47,0.00,,,0.00,WUHU216HW,2013-05-01 23:43:00,
2013-05-01 18:48:00,77.6,55.7,30.05,East,90,1.1,2.9,47,0.00,,,0.00,WUHU216HW,2013-05-01 23:48:00,
2013-05-01 18:53:00,77.6,55.7,30.05,North,0,3.4,5.4,47,0.00,,,0.00,WUHU216HW,2013-05-01 23:53:00,
2013-05-01 18:58:00,77.0,53.4,30.06,NNE,23,6.7,8.5,44,0.00,,,0.00,WUHU216HW,2013-05-01 23:58:00,
2013-05-01 19:03:00,75.2,53.7,30.07,NNW,338,7.6,12.5,47,0.00,,,0.00,WUHU216HW,2013-05-02 00:03:00,
2013-05-01 19:08:00,74.5,53.6,30.07,North,0,7.6,12.5,48,0.00,,,0.00,WUHU216HW,2013-05-02 00:08:00,
2013-05-01 19:13:00,74.3,53.9,30.07,North,0,8.5,10.3,49,0.00,,,0.00,WUHU216HW,2013-05-02 00:13:00,
2013-05-01 19:18:00,73.3,51.7,30.07,North,0,5.4,10.3,47,0.00,,,0.00,WUHU216HW,2013-05-02 00:18:00,
2013-05-01 19:23:00,72.5,51.0,30.08,NNW,338,4.0,10.1,47,0.00,,,0.00,WUHU216HW,2013-05-02 00:23:00,
2013-05-01 19:28:00,72.2,50.8,30.08,NNE,23,6.5,9.2,47,0.00,,,0.00,WUHU216HW,2013-05-02 00:28:00,
2013-05-01 19:33:00,71.3,50.0,30.08,North,0,8.7,10.5,47,0.00,,,0.00,WUHU216HW,2013-05-02 00:33:00,
2013-05-01 19:38:00,70.2,49.0,30.08,NNW,338,8.9,10.5,47,0.00,,,0.00,WUHU216HW,2013-05-02 00:38:00,
2013-05-01 19:43:00,69.5,49.5,30.08,NNW,338,6.9,10.7,49,0.00,,,0.00,WUHU216HW,2013-05-02 00:43:00,
2013-05-01 19:48:00,68.8,48.2,30.09,North,0,9.2,13.2,48,0.00,,,0.00,WUHU216HW,2013-05-02 00:48:00,
2013-05-01 19:53:00,68.4,48.5,30.09,North,0,11.4,13.2,49,0.00,,,0.00,WUHU216HW,2013-05-02 00:53:00,
2013-05-01 19:58:00,67.9,48.1,30.09,NNW,338,9.2,12.8,49,0.00,,,0.00,WUHU216HW,2013-05-02 00:58:00,
2013-05-01 20:03:00,67.3,48.2,30.09,NNW,338,5.4,12.8,50,0.00,,,0.00,WUHU216HW,2013-05-02 01:03:00,
2013-05-01 20:08:00,66.6,48.0,30.10,North,0,6.7,12.8,51,0.00,,,0.00,WUHU216HW,2013-05-02 01:08:00,
2013-05-01 20:13:00,66.1,47.4,30.10,North,0,5.8,11.9,51,0.00,,,0.00,WUHU216HW,2013-05-02 01:13:00,
2013-05-01 20:18:00,65.2,46.5,30.10,North,0,9.6,13.4,51,0.00,,,0.00,WUHU216HW,2013-05-02 01:18:00,
2013-05-01 20:23:00,64.6,47.0,30.11,NNE,23,8.5,13.9,53,0.00,,,0.00,WUHU216HW,2013-05-02 01:23:00,
2013-05-01 20:28:00,64.3,46.6,30.11,NNE,23,4.7,15.0,53,0.00,,,0.00,WUHU216HW,2013-05-02 01:28:00,
2013-05-01 20:33:00,63.7,46.6,30.11,North,0,8.5,15.0,54,0.00,,,0.00,WUHU216HW,2013-05-02 01:33:00,
2013-05-01 20:38:00,63.4,46.4,30.12,North,0,8.5,15.4,54,0.00,,,0.00,WUHU216HW,2013-05-02 01:38:00,
2013-05-01 20:43:00,63.2,46.2,30.12,North,0,9.2,15.4,54,0.00,,,0.00,WUHU216HW,2013-05-02 01:43:00,
2013-05-01 20:48:00,62.8,46.4,30.12,North,0,11.2,15.0,55,0.00,,,0.00,WUHU216HW,2013-05-02 01:48:00,
2013-05-01 20:53:00,62.5,46.0,30.12,North,0,14.3,14.3,55,0.00,,,0.00,WUHU216HW,2013-05-02 01:53:00,
2013-05-01 20:58:00,62.3,45.8,30.12,North,0,10.5,15.4,55,0.00,,,0.00,WUHU216HW,2013-05-02 01:58:00,
2013-05-01 21:03:00,61.9,46.0,30.12,North,0,12.3,16.6,56,0.00,,,0.00,WUHU216HW,2013-05-02 02:03:00,
2013-05-01 21:08:00,61.7,45.8,30.13,North,0,9.4,16.6,56,0.00,,,0.00,WUHU216HW,2013-05-02 02:08:00,
2013-05-01 21:13:00,61.6,46.2,30.13,North,0,9.2,15.4,57,0.00,,,0.00,WUHU216HW,2013-05-02 02:13:00,
2013-05-01 21:18:00,61.2,45.8,30.13,North,0,10.5,15.0,57,0.00,,,0.00,WUHU216HW,2013-05-02 02:18:00,
2013-05-01 21:23:00,60.8,45.6,30.13,North,0,6.9,15.0,57,0.00,,,0.00,WUHU216HW,2013-05-02 02:23:00,
2013-05-01 21:28:00,60.5,45.6,30.14,North,0,8.3,14.3,58,0.00,,,0.00,WUHU216HW,2013-05-02 02:28:00,
2013-05-01 21:33:00,60.3,45.5,30.15,North,0,7.2,14.8,58,0.00,,,0.00,WUHU216HW,2013-05-02 02:33:00,
2013-05-01 21:38:00,59.9,45.1,30.15,North,0,9.2,14.8,58,0.00,,,0.00,WUHU216HW,2013-05-02 02:38:00,
2013-05-01 21:43:00,59.8,45.5,30.15,North,0,8.1,13.6,59,0.00,,,0.00,WUHU216HW,2013-05-02 02:43:00,
2013-05-01 21:48:00,59.6,45.3,30.16,NNE,23,7.4,13.6,59,0.00,,,0.00,WUHU216HW,2013-05-02 02:48:00,
2013-05-01 21:53:00,59.4,45.1,30.15,NNW,338,8.1,13.2,59,0.00,,,0.00,WUHU216HW,2013-05-02 02:53:00,
2013-05-01 21:58:00,59.4,45.1,30.15,North,0,7.6,10.5,59,0.00,,,0.00,WUHU216HW,2013-05-02 02:58:00,
2013-05-01 22:03:00,59.4,45.1,30.15,North,0,9.8,14.1,59,0.00,,,0.00,WUHU216HW,2013-05-02 03:03:00,
2013-05-01 22:08:00,59.0,45.2,30.16,North,0,12.8,14.1,60,0.00,,,0.00,WUHU216HW,2013-05-02 03:08:00,
2013-05-01 22:13:00,58.7,44.4,30.16,NE,45,8.5,14.8,59,0.00,,,0.00,WUHU216HW,2013-05-02 03:13:00,
2013-05-01 22:18:00,58.5,44.2,30.16,North,0,8.3,14.8,59,0.00,,,0.00,WUHU216HW,2013-05-02 03:18:00,
2013-05-01 22:23:00,58.1,43.9,30.16,North,0,10.1,12.5,59,0.00,,,0.00,WUHU216HW,2013-05-02 03:23:00,
2013-05-01 22:28:00,58.0,43.7,30.17,North,0,8.3,11.9,59,0.00,,,0.00,WUHU216HW,2013-05-02 03:28:00,
2013-05-01 22:33:00,57.6,43.4,30.16,North,0,7.4,11.0,59,0.00,,,0.00,WUHU216HW,2013-05-02 03:33:00,
2013-05-01 22:38:00,57.4,43.8,30.17,NNE,23,8.7,11.2,60,0.00,,,0.00,WUHU216HW,2013-05-02 03:38:00,
2013-05-01 22:43:00,57.2,43.6,30.17,North,0,7.6,11.2,60,0.00,,,0.00,WUHU216HW,2013-05-02 03:43:00,
2013-05-01 22:48:00,56.9,43.6,30.17,NNW,338,5.6,10.7,61,0.00,,,0.00,WUHU216HW,2013-05-02 03:48:00,
2013-05-01 22:53:00,56.7,43.4,30.17,North,0,7.4,8.3,61,0.00,,,0.00,WUHU216HW,2013-05-02 03:53:00,
2013-05-01 22:58:00,56.5,43.7,30.17,North,0,9.2,9.4,62,0.00,,,0.00,WUHU216HW,2013-05-02 03:58:00,
2013-05-01 23:01:00,56.5,43.7,30.17,North,0,6.3,9.4,62,0.00,,,0.00,WUHU216HW,2013-05-02 04:01:00,
2013-05-01 23:06:00,56.7,44.7,30.17,NNW,338,8.3,13.2,64,0.00,,,0.00,WUHU216HW,2013-05-02 04:06:00,
2013-05-01 23:11:00,56.9,44.8,30.17,NW,315,11.2,13.2,64,0.00,,,0.00,WUHU216HW,2013-05-02 04:11:00,
2013-05-01 23:16:00,56.7,44.7,30.17,NE,45,8.5,11.4,64,0.00,,,0.00,WUHU216HW,2013-05-02 04:16:00,
2013-05-01 23:21:00,56.5,44.5,30.18,North,0,4.0,11.2,64,0.00,,,0.00,WUHU216HW,2013-05-02 04:21:00,
2013-05-01 23:26:00,56.3,44.3,30.18,North,0,8.5,11.6,64,0.00,,,0.00,WUHU216HW,2013-05-02 04:26:00,
2013-05-01 23:31:00,56.2,44.6,30.18,WSW,248,1.1,11.6,65,0.00,,,0.00,WUHU216HW,2013-05-02 04:31:00,
2013-05-01 23:36:00,55.8,43.7,30.18,NNW,338,5.4,8.5,64,0.00,,,0.00,WUHU216HW,2013-05-02 04:36:00,
2013-05-01 23:41:00,55.8,43.7,30.19,East,90,1.8,7.6,64,0.00,,,0.00,WUHU216HW,2013-05-02 04:41:00,
2013-05-01 23:46:00,55.6,43.6,30.19,North,0,2.9,6.9,64,0.00,,,0.00,WUHU216HW,2013-05-02 04:46:00,
2013-05-01 23:51:00,55.4,43.4,30.19,NNE,23,4.0,5.6,64,0.00,,,0.00,WUHU216HW,2013-05-02 04:51:00,
2013-05-01 23:56:00,55.1,43.1,30.18,ENE,68,11.4,11.4,64,0.00,,,0.00,WUHU216HW,2013-05-02 04:56:00,